sensor_id;sensor_type;location;lat;lon;timestamp;pressure;altitude;pressure_sealevel;temperature;humidity
36062;BME280;22123;52.412;20.970;2023-02-13T00:00:36;102214.63;;;1.55;100.00
36062;BME280;22123;52.412;20.970;2023-02-13T00:03:03;102156.88;;;1.22;100.00
36062;BME280;22123;52.412;20.970;2023-02-13T00:05:29;102228.72;;;1.76;100.00
36062;BME280;22123;52.412;20.970;2023-02-13T00:07:55;102285.91;;;2.02;100.00
36062;BME280;22123;52.412;20.970;2023-02-13T00:10:21;102200.50;;;1.54;100.00
36062;BME280;22123;52.412;20.970;2023-02-13T00:12:46;102236.31;;;1.84;100.00
36062;BME280;22123;52.412;20.970;2023-02-13T00:15:12;102219.53;;;1.64;100.00
36062;BME280;22123;52.412;20.970;2023-02-13T00:17:38;102224.41;;;1.73;100.00
36062;BME280;22123;52.412;20.970;2023-02-13T00:20:05;102162.69;;;1.30;100.00
36062;BME280;22123;52.412;20.970;2023-02-13T00:22:34;102341.66;;;2.42;100.00
36062;BME280;22123;52.412;20.970;2023-02-13T00:25:00;102238.84;;;1.87;100.00
36062;BME280;22123;52.412;20.970;2023-02-13T00:27:26;102197.69;;;1.77;100.00
36062;BME280;22123;52.412;20.970;2023-02-13T00:29:52;102236.59;;;1.97;100.00
36062;BME280;22123;52.412;20.970;2023-02-13T00:32:18;102323.91;;;2.42;100.00
36062;BME280;22123;52.412;20.970;2023-02-13T00:34:44;102294.38;;;2.30;100.00
36062;BME280;22123;52.412;20.970;2023-02-13T00:37:10;102243.41;;;2.02;100.00
36062;BME280;22123;52.412;20.970;2023-02-13T00:39:36;102116.19;;;1.21;100.00
36062;BME280;22123;52.412;20.970;2023-02-13T00:42:02;102154.38;;;1.57;100.00
36062;BME280;22123;52.412;20.970;2023-02-13T00:44:27;102363.25;;;2.72;100.00
36062;BME280;22123;52.412;20.970;2023-02-13T00:46:53;102160.06;;;1.49;100.00
36062;BME280;22123;52.412;20.970;2023-02-13T00:49:19;102244.28;;;2.03;100.00
36062;BME280;22123;52.412;20.970;2023-02-13T00:51:45;102289.84;;;2.32;100.00
36062;BME280;22123;52.412;20.970;2023-02-13T00:54:11;102260.56;;;2.14;100.00
36062;BME280;22123;52.412;20.970;2023-02-13T00:56:37;102368.19;;;2.80;100.00
36062;BME280;22123;52.412;20.970;2023-02-13T00:59:03;102112.56;;;1.24;100.00
36062;BME280;22123;52.412;20.970;2023-02-13T01:01:29;102166.00;;;1.54;100.00
36062;BME280;22123;52.412;20.970;2023-02-13T01:03:55;102368.19;;;2.80;100.00
36062;BME280;22123;52.412;20.970;2023-02-13T01:06:22;102162.41;;;1.55;100.00
36062;BME280;22123;52.412;20.970;2023-02-13T01:08:48;102157.09;;;1.55;100.00
36062;BME280;22123;52.412;20.970;2023-02-13T01:11:14;102209.47;;;1.90;100.00
36062;BME280;22123;52.412;20.970;2023-02-13T01:13:40;102298.25;;;2.41;100.00
36062;BME280;22123;52.412;20.970;2023-02-13T01:16:06;102360.13;;;2.82;100.00
36062;BME280;22123;52.412;20.970;2023-02-13T01:18:32;102273.28;;;2.26;100.00
36062;BME280;22123;52.412;20.970;2023-02-13T01:21:00;102147.56;;;1.51;100.00
36062;BME280;22123;52.412;20.970;2023-02-13T01:23:35;102364.38;;;2.86;100.00
36062;BME280;22123;52.412;20.970;2023-02-13T01:26:06;102145.34;;;1.61;100.00
36062;BME280;22123;52.412;20.970;2023-02-13T01:28:33;102356.22;;;2.89;100.00
36062;BME280;22123;52.412;20.970;2023-02-13T01:30:59;102306.97;;;2.63;100.00
36062;BME280;22123;52.412;20.970;2023-02-13T01:33:27;102246.03;;;2.21;100.00
36062;BME280;22123;52.412;20.970;2023-02-13T01:35:53;102188.22;;;1.90;100.00
36062;BME280;22123;52.412;20.970;2023-02-13T01:38:19;102334.59;;;2.77;100.00
36062;BME280;22123;52.412;20.970;2023-02-13T01:40:50;102310.41;;;2.65;100.00
36062;BME280;22123;52.412;20.970;2023-02-13T01:43:16;102140.94;;;1.60;100.00
36062;BME280;22123;52.412;20.970;2023-02-13T01:45:45;102190.44;;;1.99;100.00
36062;BME280;22123;52.412;20.970;2023-02-13T01:48:22;102217.69;;;2.22;100.00
36062;BME280;22123;52.412;20.970;2023-02-13T01:51:03;102340.69;;;2.99;100.00
36062;BME280;22123;52.412;20.970;2023-02-13T01:53:31;102349.66;;;2.96;100.00
36062;BME280;22123;52.412;20.970;2023-02-13T01:56:05;102220.94;;;2.09;100.00
36062;BME280;22123;52.412;20.970;2023-02-13T01:58:35;102307.41;;;2.72;100.00
36062;BME280;22123;52.412;20.970;2023-02-13T02:01:03;102186.03;;;1.98;100.00
36062;BME280;22123;52.412;20.970;2023-02-13T02:06:07;102143.03;;;1.72;100.00
36062;BME280;22123;52.412;20.970;2023-02-13T02:08:37;102296.88;;;2.69;100.00
36062;BME280;22123;52.412;20.970;2023-02-13T02:11:08;102356.25;;;3.06;100.00
36062;BME280;22123;52.412;20.970;2023-02-13T02:13:36;102142.88;;;1.76;100.00
36062;BME280;22123;52.412;20.970;2023-02-13T02:16:02;102220.19;;;2.25;100.00
36062;BME280;22123;52.412;20.970;2023-02-13T02:18:28;101989.81;;;0.82;100.00
36062;BME280;22123;52.412;20.970;2023-02-13T02:21:14;102350.84;;;3.08;100.00
36062;BME280;22123;52.412;20.970;2023-02-13T02:29:40;102350.59;;;3.12;100.00
36062;BME280;22123;52.412;20.970;2023-02-13T02:35:05;102141.66;;;1.83;100.00
36062;BME280;22123;52.412;20.970;2023-02-13T02:40:23;102286.88;;;2.74;100.00
36062;BME280;22123;52.412;20.970;2023-02-13T02:43:03;102353.44;;;3.09;100.00
36062;BME280;22123;52.412;20.970;2023-02-13T02:45:50;102155.56;;;1.88;100.00
36062;BME280;22123;52.412;20.970;2023-02-13T02:48:42;102357.75;;;3.12;100.00
36062;BME280;22123;52.412;20.970;2023-02-13T02:51:24;102250.94;;;2.31;100.00
36062;BME280;22123;52.412;20.970;2023-02-13T02:54:08;102283.97;;;2.61;100.00
36062;BME280;22123;52.412;20.970;2023-02-13T02:56:40;102148.66;;;1.84;100.00
36062;BME280;22123;52.412;20.970;2023-02-13T02:59:12;102347.94;;;3.12;100.00
36062;BME280;22123;52.412;20.970;2023-02-13T03:01:40;102254.38;;;2.50;100.00
36062;BME280;22123;52.412;20.970;2023-02-13T03:04:33;102337.94;;;3.00;100.00
36062;BME280;22123;52.412;20.970;2023-02-13T03:07:05;102195.78;;;2.17;100.00
36062;BME280;22123;52.412;20.970;2023-02-13T03:09:36;102363.69;;;3.17;100.00
36062;BME280;22123;52.412;20.970;2023-02-13T03:12:03;102374.19;;;3.20;100.00
36062;BME280;22123;52.412;20.970;2023-02-13T03:14:30;102203.38;;;2.24;100.00
36062;BME280;22123;52.412;20.970;2023-02-13T03:16:57;102223.03;;;2.39;100.00
36062;BME280;22123;52.412;20.970;2023-02-13T03:22:28;102364.25;;;3.24;100.00
36062;BME280;22123;52.412;20.970;2023-02-13T03:27:42;102355.69;;;3.17;100.00
36062;BME280;22123;52.412;20.970;2023-02-13T03:30:21;102321.50;;;2.92;100.00
36062;BME280;22123;52.412;20.970;2023-02-13T03:38:21;102338.09;;;3.15;100.00
36062;BME280;22123;52.412;20.970;2023-02-13T03:41:06;102178.72;;;2.03;100.00
36062;BME280;22123;52.412;20.970;2023-02-13T03:43:40;102128.38;;;1.83;100.00
36062;BME280;22123;52.412;20.970;2023-02-13T03:46:09;102250.22;;;2.44;100.00
36062;BME280;22123;52.412;20.970;2023-02-13T03:48:38;102196.72;;;2.16;100.00
36062;BME280;22123;52.412;20.970;2023-02-13T03:51:06;102184.81;;;2.05;100.00
36062;BME280;22123;52.412;20.970;2023-02-13T03:53:35;102290.72;;;2.69;100.00
36062;BME280;22123;52.412;20.970;2023-02-13T03:56:03;102302.44;;;2.82;100.00
36062;BME280;22123;52.412;20.970;2023-02-13T03:58:38;102318.75;;;2.93;100.00
36062;BME280;22123;52.412;20.970;2023-02-13T04:01:07;102141.50;;;1.86;100.00
36062;BME280;22123;52.412;20.970;2023-02-13T04:03:57;102349.69;;;3.13;100.00
36062;BME280;22123;52.412;20.970;2023-02-13T04:06:32;102271.00;;;2.55;100.00
36062;BME280;22123;52.412;20.970;2023-02-13T04:09:00;102229.78;;;2.47;100.00
36062;BME280;22123;52.412;20.970;2023-02-13T04:11:36;102341.28;;;3.21;100.00
36062;BME280;22123;52.412;20.970;2023-02-13T04:14:11;102348.28;;;3.24;100.00
36062;BME280;22123;52.412;20.970;2023-02-13T04:16:42;102342.94;;;3.24;100.00
36062;BME280;22123;52.412;20.970;2023-02-13T04:19:09;102281.25;;;2.81;100.00
36062;BME280;22123;52.412;20.970;2023-02-13T04:21:38;102257.00;;;2.69;100.00
36062;BME280;22123;52.412;20.970;2023-02-13T04:24:04;102206.75;;;2.28;100.00
36062;BME280;22123;52.412;20.970;2023-02-13T04:26:39;102293.47;;;2.85;100.00
36062;BME280;22123;52.412;20.970;2023-02-13T04:29:06;102351.25;;;3.18;100.00
36062;BME280;22123;52.412;20.970;2023-02-13T04:31:32;102195.34;;;2.26;100.00
36062;BME280;22123;52.412;20.970;2023-02-13T04:33:58;102272.00;;;2.70;100.00
36062;BME280;22123;52.412;20.970;2023-02-13T04:36:24;102356.41;;;3.21;100.00
36062;BME280;22123;52.412;20.970;2023-02-13T04:38:50;102286.88;;;2.74;100.00
36062;BME280;22123;52.412;20.970;2023-02-13T04:41:16;102214.50;;;2.33;100.00
36062;BME280;22123;52.412;20.970;2023-02-13T04:43:42;102325.63;;;2.98;100.00
36062;BME280;22123;52.412;20.970;2023-02-13T04:46:08;102282.66;;;2.70;100.00
36062;BME280;22123;52.412;20.970;2023-02-13T04:48:33;102282.75;;;2.69;100.00
36062;BME280;22123;52.412;20.970;2023-02-13T04:50:59;102266.09;;;2.65;100.00
36062;BME280;22123;52.412;20.970;2023-02-13T04:53:25;102312.66;;;2.91;100.00
36062;BME280;22123;52.412;20.970;2023-02-13T04:55:51;102314.75;;;2.85;100.00
36062;BME280;22123;52.412;20.970;2023-02-13T04:58:17;102129.16;;;1.85;100.00
36062;BME280;22123;52.412;20.970;2023-02-13T05:00:43;102271.25;;;2.68;100.00
36062;BME280;22123;52.412;20.970;2023-02-13T05:03:11;102138.63;;;1.90;100.00
36062;BME280;22123;52.412;20.970;2023-02-13T05:05:37;102273.75;;;2.71;100.00
36062;BME280;22123;52.412;20.970;2023-02-13T05:08:05;102351.84;;;3.23;100.00
36062;BME280;22123;52.412;20.970;2023-02-13T05:10:31;102253.88;;;2.61;100.00
36062;BME280;22123;52.412;20.970;2023-02-13T05:13:03;102321.66;;;3.06;100.00
36062;BME280;22123;52.412;20.970;2023-02-13T05:15:29;102269.75;;;2.80;100.00
36062;BME280;22123;52.412;20.970;2023-02-13T05:17:55;102292.38;;;2.89;100.00
36062;BME280;22123;52.412;20.970;2023-02-13T05:20:20;102261.53;;;2.67;100.00
36062;BME280;22123;52.412;20.970;2023-02-13T05:22:48;102298.78;;;3.02;100.00
36062;BME280;22123;52.412;20.970;2023-02-13T05:25:14;102312.03;;;3.04;100.00
36062;BME280;22123;52.412;20.970;2023-02-13T05:27:40;102293.00;;;2.94;100.00
36062;BME280;22123;52.412;20.970;2023-02-13T05:30:07;102281.09;;;2.84;100.00
36062;BME280;22123;52.412;20.970;2023-02-13T05:32:32;102251.31;;;2.77;100.00
36062;BME280;22123;52.412;20.970;2023-02-13T05:34:58;102321.16;;;3.16;100.00
36062;BME280;22123;52.412;20.970;2023-02-13T05:37:24;102308.50;;;3.03;100.00
36062;BME280;22123;52.412;20.970;2023-02-13T05:39:50;102311.16;;;3.03;100.00
36062;BME280;22123;52.412;20.970;2023-02-13T05:42:16;102285.16;;;2.91;100.00
36062;BME280;22123;52.412;20.970;2023-02-13T05:44:42;102264.84;;;2.72;100.00
36062;BME280;22123;52.412;20.970;2023-02-13T05:47:08;102274.22;;;2.80;100.00
36062;BME280;22123;52.412;20.970;2023-02-13T05:49:34;102356.97;;;3.27;100.00
36062;BME280;22123;52.412;20.970;2023-02-13T05:51:59;102321.72;;;3.05;100.00
36062;BME280;22123;52.412;20.970;2023-02-13T05:54:25;102290.97;;;2.82;100.00
36062;BME280;22123;52.412;20.970;2023-02-13T05:56:51;102355.25;;;3.26;100.00
36062;BME280;22123;52.412;20.970;2023-02-13T05:59:17;102284.00;;;2.79;100.00
36062;BME280;22123;52.412;20.970;2023-02-13T06:01:43;102340.44;;;3.03;100.00
36062;BME280;22123;52.412;20.970;2023-02-13T06:04:09;102328.78;;;3.06;100.00
36062;BME280;22123;52.412;20.970;2023-02-13T06:06:35;102367.47;;;3.30;100.00
36062;BME280;22123;52.412;20.970;2023-02-13T06:09:01;102313.25;;;2.96;100.00
36062;BME280;22123;52.412;20.970;2023-02-13T06:11:26;102292.63;;;2.84;100.00
36062;BME280;22123;52.412;20.970;2023-02-13T06:13:52;102307.34;;;2.91;100.00
36062;BME280;22123;52.412;20.970;2023-02-13T06:16:18;102331.13;;;3.12;100.00
36062;BME280;22123;52.412;20.970;2023-02-13T06:18:44;102358.59;;;3.30;100.00
36062;BME280;22123;52.412;20.970;2023-02-13T06:21:10;102244.47;;;2.54;100.00
36062;BME280;22123;52.412;20.970;2023-02-13T06:23:36;102288.00;;;2.88;100.00
36062;BME280;22123;52.412;20.970;2023-02-13T06:26:06;102324.06;;;3.11;100.00
36062;BME280;22123;52.412;20.970;2023-02-13T06:28:33;102362.81;;;3.34;100.00
36062;BME280;22123;52.412;20.970;2023-02-13T06:31:00;102321.66;;;3.06;100.00
36062;BME280;22123;52.412;20.970;2023-02-13T06:33:25;102276.50;;;2.70;100.00
36062;BME280;22123;52.412;20.970;2023-02-13T06:35:51;102286.72;;;2.77;100.00
36062;BME280;22123;52.412;20.970;2023-02-13T06:38:17;102367.63;;;3.27;100.00
36062;BME280;22123;52.412;20.970;2023-02-13T06:40:47;102329.88;;;3.02;100.00
36062;BME280;22123;52.412;20.970;2023-02-13T06:43:14;102379.03;;;3.29;100.00
36062;BME280;22123;52.412;20.970;2023-02-13T06:45:41;102308.50;;;2.86;100.00
36062;BME280;22123;52.412;20.970;2023-02-13T06:48:07;102374.03;;;3.23;100.00
36062;BME280;22123;52.412;20.970;2023-02-13T06:50:33;102311.56;;;2.95;100.00
36062;BME280;22123;52.412;20.970;2023-02-13T06:52:59;102337.63;;;3.06;100.00
36062;BME280;22123;52.412;20.970;2023-02-13T06:55:27;102384.75;;;3.39;100.00
36062;BME280;22123;52.412;20.970;2023-02-13T06:57:53;102361.72;;;3.38;100.00
36062;BME280;22123;52.412;20.970;2023-02-13T07:00:19;102282.50;;;2.91;100.00
36062;BME280;22123;52.412;20.970;2023-02-13T07:02:46;102360.81;;;3.39;100.00
36062;BME280;22123;52.412;20.970;2023-02-13T07:05:13;102365.16;;;3.40;100.00
36062;BME280;22123;52.412;20.970;2023-02-13T07:07:40;102370.50;;;3.40;100.00
36062;BME280;22123;52.412;20.970;2023-02-13T07:10:10;102373.88;;;3.44;100.00
36062;BME280;22123;52.412;20.970;2023-02-13T07:12:37;102358.59;;;3.47;100.00
36062;BME280;22123;52.412;20.970;2023-02-13T07:15:04;102288.94;;;3.04;100.00
36062;BME280;22123;52.412;20.970;2023-02-13T07:17:30;102373.47;;;3.52;100.00
36062;BME280;22123;52.412;20.970;2023-02-13T07:19:56;102358.06;;;3.41;100.00
36062;BME280;22123;52.412;20.970;2023-02-13T07:22:22;102320.25;;;3.17;100.00
36062;BME280;22123;52.412;20.970;2023-02-13T07:24:48;102317.50;;;3.18;100.00
36062;BME280;22123;52.412;20.970;2023-02-13T07:27:13;102301.28;;;3.05;100.00
36062;BME280;22123;52.412;20.970;2023-02-13T07:29:39;102377.88;;;3.53;100.00
36062;BME280;22123;52.412;20.970;2023-02-13T07:32:05;102360.41;;;3.47;100.00
36062;BME280;22123;52.412;20.970;2023-02-13T07:34:32;102387.31;;;3.76;100.00
36062;BME280;22123;52.412;20.970;2023-02-13T07:36:58;102394.13;;;3.81;100.00
36062;BME280;22123;52.412;20.970;2023-02-13T07:39:23;102341.50;;;3.52;100.00
36062;BME280;22123;52.412;20.970;2023-02-13T07:41:50;102384.25;;;3.83;100.00
36062;BME280;22123;52.412;20.970;2023-02-13T07:44:16;102290.72;;;3.21;100.00
36062;BME280;22123;52.412;20.970;2023-02-13T07:46:42;102270.00;;;3.10;100.00
36062;BME280;22123;52.412;20.970;2023-02-13T07:49:08;102298.72;;;3.21;100.00
36062;BME280;22123;52.412;20.970;2023-02-13T07:51:34;102362.78;;;3.69;100.00
36062;BME280;22123;52.412;20.970;2023-02-13T07:54:00;102344.22;;;3.68;100.00
36062;BME280;22123;52.412;20.970;2023-02-13T07:56:26;102301.72;;;3.48;100.00
36062;BME280;22123;52.412;20.970;2023-02-13T07:58:52;102243.31;;;3.12;100.00
36062;BME280;22123;52.412;20.970;2023-02-13T08:01:18;102298.44;;;3.61;100.00
36062;BME280;22123;52.412;20.970;2023-02-13T08:03:47;102276.06;;;3.63;100.00
36062;BME280;22123;52.412;20.970;2023-02-13T08:06:13;102250.19;;;3.50;100.00
36062;BME280;22123;52.412;20.970;2023-02-13T08:08:39;102341.25;;;4.07;100.00
36062;BME280;22123;52.412;20.970;2023-02-13T08:11:23;102373.00;;;4.28;100.00
36062;BME280;22123;52.412;20.970;2023-02-13T08:13:52;102335.28;;;4.02;100.00
36062;BME280;22123;52.412;20.970;2023-02-13T08:16:18;102321.97;;;4.02;100.00
36062;BME280;22123;52.412;20.970;2023-02-13T08:18:44;102175.25;;;3.24;100.00
36062;BME280;22123;52.412;20.970;2023-02-13T08:21:10;102326.28;;;4.21;100.00
36062;BME280;22123;52.412;20.970;2023-02-13T08:23:36;102154.75;;;3.26;100.00
36062;BME280;22123;52.412;20.970;2023-02-13T08:26:02;102313.97;;;4.34;100.00
36062;BME280;22123;52.412;20.970;2023-02-13T08:28:28;102306.06;;;4.32;100.00
36062;BME280;22123;52.412;20.970;2023-02-13T08:30:54;102299.53;;;4.38;100.00
36062;BME280;22123;52.412;20.970;2023-02-13T08:33:20;102360.09;;;4.84;100.00
36062;BME280;22123;52.412;20.970;2023-02-13T08:35:46;102223.34;;;4.02;100.00
36062;BME280;22123;52.412;20.970;2023-02-13T08:38:12;102245.28;;;4.07;100.00
36062;BME280;22123;52.412;20.970;2023-02-13T08:40:38;102301.84;;;4.28;100.00
36062;BME280;22123;52.412;20.970;2023-02-13T08:43:05;102368.97;;;4.52;100.00
36062;BME280;22123;52.412;20.970;2023-02-13T08:45:31;102320.78;;;4.24;100.00
36062;BME280;22123;52.412;20.970;2023-02-13T08:47:58;102344.59;;;4.43;100.00
36062;BME280;22123;52.412;20.970;2023-02-13T08:50:26;102279.03;;;3.91;100.00
36062;BME280;22123;52.412;20.970;2023-02-13T08:52:52;102316.56;;;4.20;100.00
36062;BME280;22123;52.412;20.970;2023-02-13T08:55:18;102258.34;;;3.80;100.00
36062;BME280;22123;52.412;20.970;2023-02-13T08:57:45;102285.50;;;4.03;100.00
36062;BME280;22123;52.412;20.970;2023-02-13T09:00:11;102312.69;;;4.09;100.00
36062;BME280;22123;52.412;20.970;2023-02-13T09:02:37;102301.25;;;4.07;100.00
36062;BME280;22123;52.412;20.970;2023-02-13T09:05:03;102262.38;;;3.87;100.00
36062;BME280;22123;52.412;20.970;2023-02-13T09:07:29;102277.75;;;3.98;100.00
36062;BME280;22123;52.412;20.970;2023-02-13T09:09:55;102325.66;;;4.15;100.00
36062;BME280;22123;52.412;20.970;2023-02-13T09:12:21;102317.44;;;4.20;100.00
36062;BME280;22123;52.412;20.970;2023-02-13T09:14:46;102189.13;;;3.46;100.00
36062;BME280;22123;52.412;20.970;2023-02-13T09:17:12;102305.41;;;4.29;100.00
36062;BME280;22123;52.412;20.970;2023-02-13T09:19:38;102299.88;;;4.32;100.00
36062;BME280;22123;52.412;20.970;2023-02-13T09:22:04;102315.97;;;4.46;100.00
36062;BME280;22123;52.412;20.970;2023-02-13T09:24:30;102281.13;;;4.33;100.00
36062;BME280;22123;52.412;20.970;2023-02-13T09:26:58;102253.84;;;4.28;100.00
36062;BME280;22123;52.412;20.970;2023-02-13T09:29:24;102334.44;;;4.81;100.00
36062;BME280;22123;52.412;20.970;2023-02-13T09:31:50;102336.81;;;4.86;100.00
36062;BME280;22123;52.412;20.970;2023-02-13T09:34:16;102257.53;;;4.42;100.00
36062;BME280;22123;52.412;20.970;2023-02-13T09:36:41;102216.88;;;4.22;100.00
36062;BME280;22123;52.412;20.970;2023-02-13T09:39:08;102313.50;;;4.90;100.00
36062;BME280;22123;52.412;20.970;2023-02-13T09:41:43;102324.69;;;5.11;100.00
36062;BME280;22123;52.412;20.970;2023-02-13T09:44:34;102270.41;;;4.65;100.00
36062;BME280;22123;52.412;20.970;2023-02-13T09:47:30;102349.44;;;5.14;100.00
36062;BME280;22123;52.412;20.970;2023-02-13T09:52:38;102262.50;;;4.64;100.00
36062;BME280;22123;52.412;20.970;2023-02-13T09:55:18;102349.72;;;5.24;100.00
36062;BME280;22123;52.412;20.970;2023-02-13T10:00:24;102356.63;;;5.43;100.00
36062;BME280;22123;52.412;20.970;2023-02-13T10:16:38;102329.97;;;5.27;100.00
36062;BME280;22123;52.412;20.970;2023-02-13T10:19:13;102353.31;;;5.39;100.00
36062;BME280;22123;52.412;20.970;2023-02-13T10:21:46;102288.69;;;4.87;100.00
36062;BME280;22123;52.412;20.970;2023-02-13T10:24:22;102367.19;;;5.30;100.00
36062;BME280;22123;52.412;20.970;2023-02-13T10:26:51;102201.81;;;4.37;100.00
36062;BME280;22123;52.412;20.970;2023-02-13T10:29:24;102317.53;;;5.11;100.00
36062;BME280;22123;52.412;20.970;2023-02-13T10:31:53;102027.75;;;3.28;100.00
36062;BME280;22123;52.412;20.970;2023-02-13T10:34:23;102306.34;;;4.90;100.00
36062;BME280;22123;52.412;20.970;2023-02-13T10:36:49;102310.81;;;4.90;100.00
36062;BME280;22123;52.412;20.970;2023-02-13T10:39:23;102344.88;;;5.00;100.00
36062;BME280;22123;52.412;20.970;2023-02-13T10:45:02;102333.56;;;4.65;100.00
36062;BME280;22123;52.412;20.970;2023-02-13T10:53:27;102336.34;;;4.47;100.00
36062;BME280;22123;52.412;20.970;2023-02-13T11:02:01;102275.09;;;4.30;100.00
36062;BME280;22123;52.412;20.970;2023-02-13T11:04:28;102123.22;;;3.34;100.00
36062;BME280;22123;52.412;20.970;2023-02-13T11:07:00;102294.97;;;4.24;100.00
36062;BME280;22123;52.412;20.970;2023-02-13T11:09:29;102279.22;;;4.20;100.00
36062;BME280;22123;52.412;20.970;2023-02-13T11:14:58;102267.03;;;4.15;100.00
36062;BME280;22123;52.412;20.970;2023-02-13T11:17:26;102181.81;;;3.66;100.00
36062;BME280;22123;52.412;20.970;2023-02-13T11:19:56;102309.44;;;4.36;100.00
36062;BME280;22123;52.412;20.970;2023-02-13T11:22:31;102259.53;;;4.06;100.00
36062;BME280;22123;52.412;20.970;2023-02-13T11:25:00;102223.88;;;3.93;100.00
36062;BME280;22123;52.412;20.970;2023-02-13T11:27:36;102287.59;;;4.29;100.00
36062;BME280;22123;52.412;20.970;2023-02-13T11:33:05;102208.38;;;3.83;100.00
36062;BME280;22123;52.412;20.970;2023-02-13T11:35:44;102304.69;;;4.41;100.00
36062;BME280;22123;52.412;20.970;2023-02-13T11:40:43;102297.47;;;4.43;100.00
36062;BME280;22123;52.412;20.970;2023-02-13T11:43:18;102300.19;;;4.42;100.00
36062;BME280;22123;52.412;20.970;2023-02-13T11:46:21;102173.91;;;3.64;100.00
36062;BME280;22123;52.412;20.970;2023-02-13T11:49:02;102255.84;;;4.25;100.00
36062;BME280;22123;52.412;20.970;2023-02-13T11:51:43;102290.06;;;4.48;100.00
36062;BME280;22123;52.412;20.970;2023-02-13T11:56:54;102284.38;;;4.55;100.00
36062;BME280;22123;52.412;20.970;2023-02-13T11:59:22;102249.13;;;4.33;100.00
36062;BME280;22123;52.412;20.970;2023-02-13T12:02:15;102283.16;;;4.60;100.00
36062;BME280;22123;52.412;20.970;2023-02-13T12:04:41;102272.06;;;4.68;100.00
36062;BME280;22123;52.412;20.970;2023-02-13T12:07:27;102265.84;;;4.67;100.00
36062;BME280;22123;52.412;20.970;2023-02-13T12:10:00;102194.72;;;4.22;100.00
36062;BME280;22123;52.412;20.970;2023-02-13T12:12:37;102260.78;;;4.63;100.00
36062;BME280;22123;52.412;20.970;2023-02-13T12:15:17;102219.44;;;4.40;100.00
36062;BME280;22123;52.412;20.970;2023-02-13T12:17:44;102171.06;;;4.15;100.00
36062;BME280;22123;52.412;20.970;2023-02-13T12:20:14;102226.03;;;4.48;100.00
36062;BME280;22123;52.412;20.970;2023-02-13T12:23:06;102215.31;;;4.34;100.00
36062;BME280;22123;52.412;20.970;2023-02-13T12:29:03;102266.88;;;4.65;100.00
36062;BME280;22123;52.412;20.970;2023-02-13T12:37:23;102244.16;;;4.74;100.00
36062;BME280;22123;52.412;20.970;2023-02-13T12:42:47;102196.44;;;4.53;100.00
36062;BME280;22123;52.412;20.970;2023-02-13T12:51:05;102229.88;;;4.89;100.00
36062;BME280;22123;52.412;20.970;2023-02-13T13:04:30;102212.69;;;5.52;100.00
36062;BME280;22123;52.412;20.970;2023-02-13T13:10:00;102062.13;;;4.97;100.00
36062;BME280;22123;52.412;20.970;2023-02-13T13:12:50;102067.47;;;4.97;100.00
36062;BME280;22123;52.412;20.970;2023-02-13T13:21:24;102198.00;;;5.31;100.00
36062;BME280;22123;52.412;20.970;2023-02-13T13:23:57;102186.25;;;5.19;100.00
36062;BME280;22123;52.412;20.970;2023-02-13T13:26:42;102134.66;;;4.75;100.00
36062;BME280;22123;52.412;20.970;2023-02-13T13:29:14;102146.50;;;4.85;100.00
36062;BME280;22123;52.412;20.970;2023-02-13T13:31:50;102101.19;;;4.55;100.00
36062;BME280;22123;52.412;20.970;2023-02-13T13:34:21;102076.56;;;4.35;100.00
36062;BME280;22123;52.412;20.970;2023-02-13T13:37:12;102183.41;;;5.08;100.00
36062;BME280;22123;52.412;20.970;2023-02-13T13:42:19;102179.28;;;5.16;100.00
36062;BME280;22123;52.412;20.970;2023-02-13T13:44:57;102107.09;;;4.75;100.00
36062;BME280;22123;52.412;20.970;2023-02-13T13:50:21;102187.31;;;5.16;100.00
36062;BME280;22123;52.412;20.970;2023-02-13T13:53:06;102148.28;;;4.85;100.00
36062;BME280;22123;52.412;20.970;2023-02-13T13:58:46;102190.06;;;5.00;100.00
36062;BME280;22123;52.412;20.970;2023-02-13T14:01:29;102184.97;;;4.81;100.00
36062;BME280;22123;52.412;20.970;2023-02-13T14:04:00;102118.00;;;4.41;100.00
36062;BME280;22123;52.412;20.970;2023-02-13T14:11:51;102150.84;;;4.58;100.00
36062;BME280;22123;52.412;20.970;2023-02-13T14:16:53;102160.47;;;4.75;100.00
36062;BME280;22123;52.412;20.970;2023-02-13T14:19:32;102169.25;;;4.77;100.00
36062;BME280;22123;52.412;20.970;2023-02-13T14:25:00;102184.13;;;4.81;100.00
36062;BME280;22123;52.412;20.970;2023-02-13T14:29:53;101987.66;;;3.61;100.00
36062;BME280;22123;52.412;20.970;2023-02-13T14:35:42;102192.16;;;4.81;100.00
36062;BME280;22123;52.412;20.970;2023-02-13T14:42:45;102105.25;;;4.32;100.00
36062;BME280;22123;52.412;20.970;2023-02-13T14:45:14;102172.28;;;4.70;100.00
36062;BME280;22123;52.412;20.970;2023-02-13T14:47:44;102089.88;;;4.21;100.00
36062;BME280;22123;52.412;20.970;2023-02-13T14:50:18;102184.56;;;4.73;100.00
36062;BME280;22123;52.412;20.970;2023-02-13T14:52:47;102064.56;;;3.98;100.00
36062;BME280;22123;52.412;20.970;2023-02-13T14:58:10;102178.78;;;4.66;100.00
36062;BME280;22123;52.412;20.970;2023-02-13T15:00:45;102094.44;;;4.19;100.00
36062;BME280;22123;52.412;20.970;2023-02-13T15:03:27;102166.28;;;4.67;100.00
36062;BME280;22123;52.412;20.970;2023-02-13T15:05:58;102134.94;;;4.40;100.00
36062;BME280;22123;52.412;20.970;2023-02-13T15:08:31;102153.31;;;4.61;100.00
36062;BME280;22123;52.412;20.970;2023-02-13T15:11:00;102088.22;;;4.18;100.00
36062;BME280;22123;52.412;20.970;2023-02-13T15:13:32;102142.56;;;4.62;100.00